sensor_id;sensor_type;location;lat;lon;timestamp;pressure;altitude;pressure_sealevel;temperature;humidity
49999;BME280;68071;45.062;7.356;2024-03-02T00:01:28;94157.00;;;4.59;100.00
49999;BME280;68071;45.062;7.356;2024-03-02T00:04:33;94162.88;;;4.46;100.00
49999;BME280;68071;45.062;7.356;2024-03-02T00:07:41;94163.28;;;4.34;100.00
49999;BME280;68071;45.062;7.356;2024-03-02T00:10:46;94167.19;;;4.36;100.00
49999;BME280;68071;45.062;7.356;2024-03-02T00:13:52;94163.31;;;4.19;100.00
49999;BME280;68071;45.062;7.356;2024-03-02T00:16:57;94161.72;;;4.07;100.00
49999;BME280;68071;45.062;7.356;2024-03-02T00:20:03;94164.06;;;3.98;100.00
49999;BME280;68071;45.062;7.356;2024-03-02T00:23:10;94166.81;;;4.23;100.00
49999;BME280;68071;45.062;7.356;2024-03-02T00:26:18;94169.94;;;4.22;100.00
49999;BME280;68071;45.062;7.356;2024-03-02T00:29:29;94162.13;;;4.06;100.00
49999;BME280;68071;45.062;7.356;2024-03-02T00:32:34;94169.53;;;3.87;100.00
49999;BME280;68071;45.062;7.356;2024-03-02T00:35:38;94172.66;;;3.97;100.00
49999;BME280;68071;45.062;7.356;2024-03-02T00:38:50;94164.47;;;4.33;100.00
49999;BME280;68071;45.062;7.356;2024-03-02T00:41:54;94171.13;;;4.28;100.00
49999;BME280;68071;45.062;7.356;2024-03-02T00:44:58;94165.22;;;3.83;100.00
49999;BME280;68071;45.062;7.356;2024-03-02T00:48:02;94161.31;;;3.84;100.00
49999;BME280;68071;45.062;7.356;2024-03-02T00:51:09;94173.44;;;3.86;100.00
49999;BME280;68071;45.062;7.356;2024-03-02T00:54:13;94167.19;;;3.93;100.00
49999;BME280;68071;45.062;7.356;2024-03-02T00:57:17;94166.81;;;4.16;100.00
49999;BME280;68071;45.062;7.356;2024-03-02T01:00:22;94169.91;;;3.86;100.00
49999;BME280;68071;45.062;7.356;2024-03-02T01:03:26;94172.97;;;3.52;100.00
49999;BME280;68071;45.062;7.356;2024-03-02T01:06:30;94176.47;;;3.45;100.00
49999;BME280;68071;45.062;7.356;2024-03-02T01:09:34;94168.75;;;3.83;100.00
49999;BME280;68071;45.062;7.356;2024-03-02T01:12:38;94166.81;;;4.34;100.00
49999;BME280;68071;45.062;7.356;2024-03-02T01:15:52;94172.66;;;4.00;100.00
49999;BME280;68071;45.062;7.356;2024-03-02T01:18:57;94171.09;;;4.06;100.00
49999;BME280;68071;45.062;7.356;2024-03-02T01:22:04;94162.13;;;3.84;100.00
49999;BME280;68071;45.062;7.356;2024-03-02T01:25:09;94165.22;;;3.75;100.00
49999;BME280;68071;45.062;7.356;2024-03-02T01:28:23;94171.91;;;3.96;100.00
49999;BME280;68071;45.062;7.356;2024-03-02T01:31:28;94176.13;;;3.54;100.00
49999;BME280;68071;45.062;7.356;2024-03-02T01:34:35;94178.88;;;3.79;100.00
49999;BME280;68071;45.062;7.356;2024-03-02T01:37:39;94183.22;;;4.05;100.00
49999;BME280;68071;45.062;7.356;2024-03-02T01:40:43;94180.50;;;4.13;100.00
49999;BME280;68071;45.062;7.356;2024-03-02T01:43:50;94173.84;;;4.28;100.00
49999;BME280;68071;45.062;7.356;2024-03-02T01:46:54;94181.25;;;4.35;100.00
49999;BME280;68071;45.062;7.356;2024-03-02T01:49:59;94168.38;;;4.24;100.00
49999;BME280;68071;45.062;7.356;2024-03-02T01:53:03;94167.16;;;3.68;100.00
49999;BME280;68071;45.062;7.356;2024-03-02T01:56:07;94165.56;;;3.48;100.00
49999;BME280;68071;45.062;7.356;2024-03-02T01:59:12;94155.78;;;3.40;100.00
49999;BME280;68071;45.062;7.356;2024-03-02T02:02:18;94147.19;;;3.38;100.00
49999;BME280;68071;45.062;7.356;2024-03-02T02:05:24;94161.22;;;3.29;100.00
49999;BME280;68071;45.062;7.356;2024-03-02T02:08:28;94157.06;;;4.12;100.00
49999;BME280;68071;45.062;7.356;2024-03-02T02:11:33;94156.19;;;3.46;100.00
49999;BME280;68071;45.062;7.356;2024-03-02T02:14:37;94145.25;;;3.50;100.00
49999;BME280;68071;45.062;7.356;2024-03-02T02:17:43;94144.88;;;3.47;100.00
49999;BME280;68071;45.062;7.356;2024-03-02T02:20:47;94142.13;;;3.40;100.00
49999;BME280;68071;45.062;7.356;2024-03-02T02:23:52;94138.97;;;3.27;100.00
49999;BME280;68071;45.062;7.356;2024-03-02T02:26:57;94143.22;;;3.14;100.00
49999;BME280;68071;45.062;7.356;2024-03-02T02:30:03;94132.69;;;3.16;100.00
49999;BME280;68071;45.062;7.356;2024-03-02T02:33:08;94123.31;;;3.17;100.00
49999;BME280;68071;45.062;7.356;2024-03-02T02:36:13;94126.09;;;3.24;100.00
49999;BME280;68071;45.062;7.356;2024-03-02T02:39:18;94124.13;;;3.21;100.00
49999;BME280;68071;45.062;7.356;2024-03-02T02:42:24;94118.72;;;3.39;100.00
49999;BME280;68071;45.062;7.356;2024-03-02T02:45:28;94125.78;;;3.58;100.00
49999;BME280;68071;45.062;7.356;2024-03-02T02:48:32;94122.28;;;3.72;100.00
49999;BME280;68071;45.062;7.356;2024-03-02T02:51:36;94131.19;;;3.37;100.00
49999;BME280;68071;45.062;7.356;2024-03-02T02:54:40;94128.09;;;3.45;100.00
49999;BME280;68071;45.062;7.356;2024-03-02T02:57:44;94129.28;;;3.55;100.00
49999;BME280;68071;45.062;7.356;2024-03-02T03:00:49;94128.47;;;3.47;100.00
49999;BME280;68071;45.062;7.356;2024-03-02T03:03:53;94118.63;;;3.07;100.00
49999;BME280;68071;45.062;7.356;2024-03-02T03:06:57;94119.88;;;3.27;100.00
49999;BME280;68071;45.062;7.356;2024-03-02T03:10:05;94119.88;;;3.38;100.00
49999;BME280;68071;45.062;7.356;2024-03-02T03:13:12;94126.53;;;3.55;100.00
49999;BME280;68071;45.062;7.356;2024-03-02T03:16:16;94120.72;;;3.75;100.00
49999;BME280;68071;45.062;7.356;2024-03-02T03:19:20;94118.75;;;4.04;100.00
49999;BME280;68071;45.062;7.356;2024-03-02T03:22:25;94117.19;;;4.07;100.00
49999;BME280;68071;45.062;7.356;2024-03-02T03:25:29;94117.59;;;4.05;100.00
49999;BME280;68071;45.062;7.356;2024-03-02T03:28:34;94117.59;;;4.05;100.00
49999;BME280;68071;45.062;7.356;2024-03-02T03:31:38;94119.16;;;4.14;100.00
49999;BME280;68071;45.062;7.356;2024-03-02T03:34:42;94126.56;;;4.20;100.00
49999;BME280;68071;45.062;7.356;2024-03-02T03:37:46;94115.63;;;4.28;100.00
49999;BME280;68071;45.062;7.356;2024-03-02T03:40:50;94125.78;;;4.38;100.00
49999;BME280;68071;45.062;7.356;2024-03-02T03:43:54;94118.75;;;3.93;100.00
49999;BME280;68071;45.062;7.356;2024-03-02T03:46:59;94111.72;;;3.82;100.00
49999;BME280;68071;45.062;7.356;2024-03-02T03:50:05;94110.97;;;3.81;100.00
49999;BME280;68071;45.062;7.356;2024-03-02T03:53:11;94114.84;;;4.16;100.00
49999;BME280;68071;45.062;7.356;2024-03-02T04:26:18;94125.75;;;4.42;100.00
49999;BME280;68071;45.062;7.356;2024-03-02T04:29:26;94136.25;;;4.65;100.00
49999;BME280;68071;45.062;7.356;2024-03-02T04:32:30;94138.25;;;4.43;100.00
49999;BME280;68071;45.062;7.356;2024-03-02T04:35:34;94140.97;;;4.57;100.00
49999;BME280;68071;45.062;7.356;2024-03-02T04:38:38;94135.91;;;4.48;100.00
49999;BME280;68071;45.062;7.356;2024-03-02T04:41:44;94144.16;;;4.05;100.00
49999;BME280;68071;45.062;7.356;2024-03-02T04:44:48;94144.56;;;4.00;100.00
49999;BME280;68071;45.062;7.356;2024-03-02T04:47:53;94133.63;;;4.00;100.00
49999;BME280;68071;45.062;7.356;2024-03-02T04:50:57;94146.88;;;3.90;100.00
49999;BME280;68071;45.062;7.356;2024-03-02T04:54:01;94157.03;;;4.15;100.00
49999;BME280;68071;45.062;7.356;2024-03-02T04:57:05;94170.28;;;4.64;100.00
49999;BME280;68071;45.062;7.356;2024-03-02T05:00:10;94158.56;;;4.52;100.00
49999;BME280;68071;45.062;7.356;2024-03-02T05:03:15;94170.22;;;4.85;100.00
49999;BME280;68071;45.062;7.356;2024-03-02T05:06:20;94155.72;;;4.99;100.00
49999;BME280;68071;45.062;7.356;2024-03-02T05:09:27;94151.50;;;4.66;100.00
49999;BME280;68071;45.062;7.356;2024-03-02T05:12:32;94139.00;;;4.65;100.00
49999;BME280;68071;45.062;7.356;2024-03-02T05:15:58;94149.59;;;4.52;100.00
49999;BME280;68071;45.062;7.356;2024-03-02T05:19:02;94155.88;;;4.38;100.00
49999;BME280;68071;45.062;7.356;2024-03-02T05:22:06;94156.25;;;4.44;100.00
49999;BME280;68071;45.062;7.356;2024-03-02T05:25:10;94164.84;;;4.42;100.00
49999;BME280;68071;45.062;7.356;2024-03-02T05:28:14;94162.13;;;4.09;100.00
49999;BME280;68071;45.062;7.356;2024-03-02T05:31:18;94175.78;;;3.91;100.00
49999;BME280;68071;45.062;7.356;2024-03-02T05:34:22;94170.72;;;4.19;100.00
49999;BME280;68071;45.062;7.356;2024-03-02T05:37:26;94175.41;;;4.04;100.00
49999;BME280;68071;45.062;7.356;2024-03-02T05:40:30;94181.25;;;3.91;100.00
49999;BME280;68071;45.062;7.356;2024-03-02T05:43:34;94175.41;;;3.97;100.00
49999;BME280;68071;45.062;7.356;2024-03-02T05:46:38;94171.13;;;4.17;100.00
49999;BME280;68071;45.062;7.356;2024-03-02T05:49:42;94171.09;;;3.99;100.00
49999;BME280;68071;45.062;7.356;2024-03-02T05:52:47;94164.84;;;3.99;100.00
49999;BME280;68071;45.062;7.356;2024-03-02T05:55:51;94161.34;;;4.09;100.00
49999;BME280;68071;45.062;7.356;2024-03-02T05:58:59;94172.66;;;4.22;100.00
49999;BME280;68071;45.062;7.356;2024-03-02T06:02:19;94177.34;;;4.07;100.00
49999;BME280;68071;45.062;7.356;2024-03-02T06:05:23;94188.28;;;4.14;100.00
49999;BME280;68071;45.062;7.356;2024-03-02T06:08:28;94198.44;;;4.32;100.00
49999;BME280;68071;45.062;7.356;2024-03-02T06:11:31;94195.72;;;4.39;100.00
49999;BME280;68071;45.062;7.356;2024-03-02T06:14:35;94204.69;;;4.61;100.00
49999;BME280;68071;45.062;7.356;2024-03-02T06:17:39;94206.66;;;4.50;100.00
49999;BME280;68071;45.062;7.356;2024-03-02T06:20:43;94207.06;;;4.34;100.00
49999;BME280;68071;45.062;7.356;2024-03-02T06:23:47;94201.59;;;4.41;100.00
49999;BME280;68071;45.062;7.356;2024-03-02T06:26:51;94211.72;;;4.69;100.00
49999;BME280;68071;45.062;7.356;2024-03-02T06:29:55;94208.59;;;4.71;100.00
49999;BME280;68071;45.062;7.356;2024-03-02T06:32:59;94207.41;;;4.79;100.00
49999;BME280;68071;45.062;7.356;2024-03-02T06:36:04;94213.63;;;4.98;100.00
49999;BME280;68071;45.062;7.356;2024-03-02T06:39:08;94214.72;;;5.26;100.00
49999;BME280;68071;45.062;7.356;2024-03-02T06:42:14;94214.75;;;5.19;100.00
49999;BME280;68071;45.062;7.356;2024-03-02T06:45:18;94211.63;;;5.09;100.00
49999;BME280;68071;45.062;7.356;2024-03-02T06:48:22;94205.34;;;5.23;100.00
49999;BME280;68071;45.062;7.356;2024-03-02T06:51:28;94204.50;;;5.37;100.00
49999;BME280;68071;45.062;7.356;2024-03-02T06:54:31;94210.31;;;5.54;100.00
49999;BME280;68071;45.062;7.356;2024-03-02T06:57:36;94207.91;;;5.67;100.00
49999;BME280;68071;45.062;7.356;2024-03-02T07:00:42;94213.38;;;5.70;100.00
49999;BME280;68071;45.062;7.356;2024-03-02T07:03:47;94214.47;;;5.84;100.00
49999;BME280;68071;45.062;7.356;2024-03-02T07:06:52;94219.50;;;6.00;100.00
49999;BME280;68071;45.062;7.356;2024-03-02T07:09:56;94225.44;;;5.84;100.00
49999;BME280;68071;45.062;7.356;2024-03-02T07:13:00;94234.50;;;5.70;100.00
49999;BME280;68071;45.062;7.356;2024-03-02T07:16:05;94231.78;;;5.66;100.00
49999;BME280;68071;45.062;7.356;2024-03-02T07:19:27;94234.75;;;6.04;100.00
49999;BME280;68071;45.062;7.356;2024-03-02T07:22:31;94238.56;;;6.18;100.00
49999;BME280;68071;45.062;7.356;2024-03-02T07:25:35;94243.00;;;6.57;100.00
49999;BME280;68071;45.062;7.356;2024-03-02T07:28:39;94253.84;;;6.75;100.00
49999;BME280;68071;45.062;7.356;2024-03-02T07:31:44;94255.94;;;7.06;100.00
49999;BME280;68071;45.062;7.356;2024-03-02T07:34:48;94260.50;;;7.20;100.00
49999;BME280;68071;45.062;7.356;2024-03-02T07:37:52;94257.78;;;7.16;100.00
49999;BME280;68071;45.062;7.356;2024-03-02T07:40:56;94253.78;;;7.24;100.00
49999;BME280;68071;45.062;7.356;2024-03-02T07:44:00;94255.84;;;7.13;100.00
49999;BME280;68071;45.062;7.356;2024-03-02T07:47:05;94254.56;;;7.25;100.00
49999;BME280;68071;45.062;7.356;2024-03-02T07:50:09;94255.47;;;7.15;100.00
49999;BME280;68071;45.062;7.356;2024-03-02T07:53:13;94255.78;;;7.20;100.00
49999;BME280;68071;45.062;7.356;2024-03-02T07:56:17;94259.41;;;7.10;100.00
49999;BME280;68071;45.062;7.356;2024-03-02T07:59:25;94263.09;;;6.96;100.00
49999;BME280;68071;45.062;7.356;2024-03-02T08:02:30;94260.88;;;6.80;100.00
49999;BME280;68071;45.062;7.356;2024-03-02T08:05:34;94257.78;;;6.74;100.00
49999;BME280;68071;45.062;7.356;2024-03-02T08:08:38;94268.06;;;6.66;100.00
49999;BME280;68071;45.062;7.356;2024-03-02T08:11:43;94274.13;;;6.89;100.00
49999;BME280;68071;45.062;7.356;2024-03-02T08:14:46;94272.91;;;6.93;100.00
49999;BME280;68071;45.062;7.356;2024-03-02T08:29:02;94309.59;;;7.60;100.00
49999;BME280;68071;45.062;7.356;2024-03-02T08:32:07;94302.44;;;6.82;100.00
49999;BME280;68071;45.062;7.356;2024-03-02T08:35:11;94314.38;;;6.57;100.00
49999;BME280;68071;45.062;7.356;2024-03-02T08:38:16;94313.19;;;6.62;100.00
49999;BME280;68071;45.062;7.356;2024-03-02T08:41:20;94305.72;;;6.62;100.00
49999;BME280;68071;45.062;7.356;2024-03-02T08:44:25;94309.47;;;6.87;100.00
49999;BME280;68071;45.062;7.356;2024-03-02T08:47:29;94311.22;;;7.11;100.00
49999;BME280;68071;45.062;7.356;2024-03-02T08:50:34;94309.38;;;7.39;100.00
49999;BME280;68071;45.062;7.356;2024-03-02T08:53:37;94313.84;;;7.64;100.00
49999;BME280;68071;45.062;7.356;2024-03-02T08:56:42;94312.63;;;8.03;100.00
49999;BME280;68071;45.062;7.356;2024-03-02T08:59:46;94320.38;;;8.12;100.00
49999;BME280;68071;45.062;7.356;2024-03-02T09:02:50;94322.00;;;8.06;100.00
49999;BME280;68071;45.062;7.356;2024-03-02T09:05:55;94314.59;;;8.34;100.00
49999;BME280;68071;45.062;7.356;2024-03-02T09:08:59;94314.78;;;8.51;100.00
49999;BME280;68071;45.062;7.356;2024-03-02T09:12:04;94316.59;;;8.61;100.00
49999;BME280;68071;45.062;7.356;2024-03-02T09:15:08;94318.47;;;8.37;100.00
49999;BME280;68071;45.062;7.356;2024-03-02T09:18:12;94319.63;;;8.39;100.00
49999;BME280;68071;45.062;7.356;2024-03-02T09:21:17;94319.34;;;8.61;100.00
49999;BME280;68071;45.062;7.356;2024-03-02T09:24:21;94322.75;;;8.10;100.00
49999;BME280;68071;45.062;7.356;2024-03-02T09:27:25;94317.53;;;8.20;100.00
49999;BME280;68071;45.062;7.356;2024-03-02T09:30:29;94317.81;;;8.60;100.00
49999;BME280;68071;45.062;7.356;2024-03-02T09:33:33;94316.69;;;8.81;100.00
49999;BME280;68071;45.062;7.356;2024-03-02T09:36:37;94321.94;;;9.23;100.00
49999;BME280;68071;45.062;7.356;2024-03-02T09:39:43;94322.94;;;9.33;100.00
49999;BME280;68071;45.062;7.356;2024-03-02T09:42:49;94326.78;;;9.39;100.00
49999;BME280;68071;45.062;7.356;2024-03-02T09:45:56;94328.41;;;9.36;100.00
49999;BME280;68071;45.062;7.356;2024-03-02T09:49:00;94331.38;;;9.26;100.00
49999;BME280;68071;45.062;7.356;2024-03-02T09:52:04;94331.94;;;9.13;100.00
49999;BME280;68071;45.062;7.356;2024-03-02T09:55:09;94330.75;;;9.38;100.00
49999;BME280;68071;45.062;7.356;2024-03-02T09:58:15;94318.69;;;9.52;100.00
49999;BME280;68071;45.062;7.356;2024-03-02T10:01:19;94323.28;;;9.59;100.00
49999;BME280;68071;45.062;7.356;2024-03-02T10:04:25;94322.03;;;9.63;100.00
49999;BME280;68071;45.062;7.356;2024-03-02T10:07:30;94324.84;;;9.60;100.00
49999;BME280;68071;45.062;7.356;2024-03-02T10:10:38;94326.91;;;9.76;100.00
49999;BME280;68071;45.062;7.356;2024-03-02T10:13:47;94331.97;;;9.57;100.00
49999;BME280;68071;45.062;7.356;2024-03-02T10:16:53;94327.63;;;9.36;100.00
49999;BME280;68071;45.062;7.356;2024-03-02T10:19:58;94321.38;;;8.84;100.00
49999;BME280;68071;45.062;7.356;2024-03-02T10:23:15;94327.41;;;8.44;100.00
49999;BME280;68071;45.062;7.356;2024-03-02T10:26:20;94332.56;;;8.42;100.00
49999;BME280;68071;45.062;7.356;2024-03-02T10:29:24;94328.72;;;8.67;100.00
49999;BME280;68071;45.062;7.356;2024-03-02T10:32:32;94337.19;;;8.80;100.00
49999;BME280;68071;45.062;7.356;2024-03-02T10:35:38;94339.25;;;9.00;100.00
49999;BME280;68071;45.062;7.356;2024-03-02T10:38:42;94337.38;;;8.93;100.00
49999;BME280;68071;45.062;7.356;2024-03-02T10:41:49;94332.78;;;9.34;100.00
49999;BME280;68071;45.062;7.356;2024-03-02T10:44:54;94338.34;;;9.06;100.00
49999;BME280;68071;45.062;7.356;2024-03-02T10:47:57;94347.56;;;9.20;100.00
49999;BME280;68071;45.062;7.356;2024-03-02T10:51:02;94333.91;;;8.89;100.00
49999;BME280;68071;45.062;7.356;2024-03-02T10:54:06;94329.91;;;8.66;100.00
49999;BME280;68071;45.062;7.356;2024-03-02T10:57:11;94330.31;;;8.92;100.00
49999;BME280;68071;45.062;7.356;2024-03-02T11:00:18;94326.59;;;9.02;100.00
49999;BME280;68071;45.062;7.356;2024-03-02T11:03:23;94328.09;;;9.31;100.00
49999;BME280;68071;45.062;7.356;2024-03-02T11:06:28;94333.03;;;9.19;100.00
49999;BME280;68071;45.062;7.356;2024-03-02T11:09:34;94325.53;;;9.20;100.00
49999;BME280;68071;45.062;7.356;2024-03-02T11:12:46;94319.66;;;9.18;100.00
49999;BME280;68071;45.062;7.356;2024-03-02T11:15:55;94308.94;;;9.23;100.00
49999;BME280;68071;45.062;7.356;2024-03-02T11:19:08;94304.19;;;9.00;100.00
49999;BME280;68071;45.062;7.356;2024-03-02T11:22:13;94315.56;;;9.02;100.00
49999;BME280;68071;45.062;7.356;2024-03-02T11:25:25;94300.06;;;8.88;100.00
49999;BME280;68071;45.062;7.356;2024-03-02T11:28:36;94294.78;;;8.98;100.00
49999;BME280;68071;45.062;7.356;2024-03-02T11:31:58;94290.44;;;8.73;100.00
49999;BME280;68071;45.062;7.356;2024-03-02T11:35:04;94296.28;;;8.78;100.00
49999;BME280;68071;45.062;7.356;2024-03-02T11:38:09;94290.47;;;8.97;100.00
49999;BME280;68071;45.062;7.356;2024-03-02T11:41:13;94282.75;;;9.12;100.00
49999;BME280;68071;45.062;7.356;2024-03-02T11:44:18;94285.50;;;9.12;100.00
49999;BME280;68071;45.062;7.356;2024-03-02T11:47:22;94278.91;;;9.05;100.00
49999;BME280;68071;45.062;7.356;2024-03-02T11:50:31;94270.81;;;8.95;100.00
49999;BME280;68071;45.062;7.356;2024-03-02T11:53:38;94281.09;;;9.38;100.00
49999;BME280;68071;45.062;7.356;2024-03-02T11:56:43;94262.25;;;8.89;100.00
49999;BME280;68071;45.062;7.356;2024-03-02T11:59:48;94262.19;;;9.16;100.00
49999;BME280;68071;45.062;7.356;2024-03-02T12:03:20;94253.88;;;8.96;100.00
49999;BME280;68071;45.062;7.356;2024-03-02T12:06:24;94253.56;;;8.90;100.00
49999;BME280;68071;45.062;7.356;2024-03-02T12:09:29;94243.25;;;8.95;100.00
49999;BME280;68071;45.062;7.356;2024-03-02T12:29:25;94227.22;;;8.66;100.00
49999;BME280;68071;45.062;7.356;2024-03-02T12:32:30;94222.00;;;8.44;100.00
49999;BME280;68071;45.062;7.356;2024-03-02T12:35:36;94214.69;;;8.33;100.00
49999;BME280;68071;45.062;7.356;2024-03-02T12:38:44;94210.03;;;8.03;100.00
49999;BME280;68071;45.062;7.356;2024-03-02T12:41:52;94217.63;;;7.92;100.00
49999;BME280;68071;45.062;7.356;2024-03-02T12:44:58;94215.63;;;7.96;100.00
49999;BME280;68071;45.062;7.356;2024-03-02T12:48:02;94204.31;;;7.90;100.00
49999;BME280;68071;45.062;7.356;2024-03-02T12:51:08;94197.63;;;7.91;100.00
49999;BME280;68071;45.062;7.356;2024-03-02T12:54:14;94192.13;;;7.87;100.00
49999;BME280;68071;45.062;7.356;2024-03-02T12:57:19;94184.00;;;7.80;100.00
49999;BME280;68071;45.062;7.356;2024-03-02T13:00:23;94173.03;;;7.77;100.00
49999;BME280;68071;45.062;7.356;2024-03-02T13:03:29;94178.44;;;7.84;100.00
49999;BME280;68071;45.062;7.356;2024-03-02T13:06:33;94170.47;;;7.93;100.00
49999;BME280;68071;45.062;7.356;2024-03-02T13:09:37;94175.59;;;7.91;100.00
49999;BME280;68071;45.062;7.356;2024-03-02T13:12:41;94161.13;;;7.87;100.00
49999;BME280;68071;45.062;7.356;2024-03-02T13:15:46;94167.97;;;7.75;100.00
49999;BME280;68071;45.062;7.356;2024-03-02T13:18:50;94159.91;;;7.88;100.00
49999;BME280;68071;45.062;7.356;2024-03-02T13:21:55;94159.19;;;7.84;100.00
49999;BME280;68071;45.062;7.356;2024-03-02T13:24:59;94161.63;;;7.78;100.00
49999;BME280;68071;45.062;7.356;2024-03-02T13:28:05;94160.28;;;7.63;100.00
49999;BME280;68071;45.062;7.356;2024-03-02T13:31:09;94160.63;;;7.65;100.00
49999;BME280;68071;45.062;7.356;2024-03-02T13:34:14;94164.38;;;7.47;100.00
49999;BME280;68071;45.062;7.356;2024-03-02T13:37:20;94168.06;;;7.37;100.00
49999;BME280;68071;45.062;7.356;2024-03-02T13:40:24;94168.50;;;7.32;100.00
49999;BME280;68071;45.062;7.356;2024-03-02T13:43:28;94161.03;;;7.32;100.00
49999;BME280;68071;45.062;7.356;2024-03-02T13:46:35;94161.00;;;7.36;100.00
49999;BME280;68071;45.062;7.356;2024-03-02T13:49:39;94160.44;;;7.48;100.00
49999;BME280;68071;45.062;7.356;2024-03-02T13:52:47;94149.94;;;7.39;100.00
49999;BME280;68071;45.062;7.356;2024-03-02T13:55:51;94149.81;;;7.50;100.00
49999;BME280;68071;45.062;7.356;2024-03-02T13:58:55;94149.72;;;7.57;100.00
49999;BME280;68071;45.062;7.356;2024-03-02T14:01:59;94150.78;;;7.67;100.00
49999;BME280;68071;45.062;7.356;2024-03-02T14:05:04;94148.47;;;7.62;100.00
49999;BME280;68071;45.062;7.356;2024-03-02T14:08:08;94152.47;;;7.57;100.00
49999;BME280;68071;45.062;7.356;2024-03-02T14:11:13;94152.47;;;7.57;100.00
49999;BME280;68071;45.062;7.356;2024-03-02T14:14:19;94154.84;;;7.55;100.00
49999;BME280;68071;45.062;7.356;2024-03-02T14:17:24;94149.88;;;7.47;100.00
49999;BME280;68071;45.062;7.356;2024-03-02T14:20:28;94163.53;;;7.54;100.00
49999;BME280;68071;45.062;7.356;2024-03-02T14:23:32;94161.22;;;7.49;100.00
49999;BME280;68071;45.062;7.356;2024-03-02T14:26:36;94146.78;;;7.41;100.00
49999;BME280;68071;45.062;7.356;2024-03-02T14:29:42;94150.22;;;7.49;100.00
49999;BME280;68071;45.062;7.356;2024-03-02T14:32:47;94144.44;;;7.39;100.00
49999;BME280;68071;45.062;7.356;2024-03-02T14:35:51;94146.00;;;7.40;100.00
49999;BME280;68071;45.062;7.356;2024-03-02T14:38:54;94141.56;;;7.50;100.00
49999;BME280;68071;45.062;7.356;2024-03-02T14:41:59;94148.31;;;7.46;100.00
49999;BME280;68071;45.062;7.356;2024-03-02T14:45:03;94143.00;;;7.31;100.00
49999;BME280;68071;45.062;7.356;2024-03-02T14:48:08;94135.56;;;7.28;100.00
49999;BME280;68071;45.062;7.356;2024-03-02T14:51:13;94139.09;;;7.29;100.00
49999;BME280;68071;45.062;7.356;2024-03-02T14:54:18;94142.69;;;7.25;100.00
49999;BME280;68071;45.062;7.356;2024-03-02T14:57:21;94141.94;;;7.21;100.00
49999;BME280;68071;45.062;7.356;2024-03-02T15:00:26;94143.56;;;7.15;100.00
49999;BME280;68071;45.062;7.356;2024-03-02T15:03:31;94145.69;;;7.00;100.00
49999;BME280;68071;45.062;7.356;2024-03-02T15:06:36;94151.22;;;6.96;100.00
49999;BME280;68071;45.062;7.356;2024-03-02T15:09:40;94140.56;;;7.02;100.00
49999;BME280;68071;45.062;7.356;2024-03-02T15:12:44;94143.38;;;6.99;100.00
49999;BME280;68071;45.062;7.356;2024-03-02T15:15:48;94131.56;;;7.02;100.00
49999;BME280;68071;45.062;7.356;2024-03-02T15:18:53;94126.88;;;6.99;100.00
49999;BME280;68071;45.062;7.356;2024-03-02T15:21:57;94124.13;;;6.99;100.00
49999;BME280;68071;45.062;7.356;2024-03-02T15:25:01;94136.25;;;7.01;100.00
49999;BME280;68071;45.062;7.356;2024-03-02T15:28:05;94132.09;;;6.89;100.00
49999;BME280;68071;45.062;7.356;2024-03-02T15:31:09;94128.13;;;6.90;100.00
49999;BME280;68071;45.062;7.356;2024-03-02T15:34:13;94124.94;;;6.95;100.00
49999;BME280;68071;45.062;7.356;2024-03-02T15:37:18;94125.00;;;6.92;100.00
49999;BME280;68071;45.062;7.356;2024-03-02T15:40:22;94132.06;;;6.93;100.00
49999;BME280;68071;45.062;7.356;2024-03-02T15:43:26;94128.19;;;6.87;100.00
49999;BME280;68071;45.062;7.356;2024-03-02T15:46:30;94125.97;;;6.74;100.00
49999;BME280;68071;45.062;7.356;2024-03-02T15:49:35;94133.78;;;6.76;100.00
49999;BME280;68071;45.062;7.356;2024-03-02T15:52:39;94129.09;;;6.76;100.00
49999;BME280;68071;45.062;7.356;2024-03-02T15:55:43;94117.69;;;6.78;100.00
49999;BME280;68071;45.062;7.356;2024-03-02T15:58:47;94115.75;;;6.75;100.00
49999;BME280;68071;45.062;7.356;2024-03-02T16:01:54;94129.13;;;6.73;100.00
49999;BME280;68071;45.062;7.356;2024-03-02T16:05:00;94123.28;;;6.67;100.00
49999;BME280;68071;45.062;7.356;2024-03-02T16:08:05;94123.75;;;6.62;100.00
49999;BME280;68071;45.062;7.356;2024-03-02T16:11:10;94122.41;;;6.77;100.00
49999;BME280;68071;45.062;7.356;2024-03-02T16:14:14;94123.63;;;6.73;100.00
49999;BME280;68071;45.062;7.356;2024-03-02T16:17:18;94122.91;;;6.65;100.00
49999;BME280;68071;45.062;7.356;2024-03-02T16:20:22;94123.38;;;6.60;100.00
49999;BME280;68071;45.062;7.356;2024-03-02T16:23:27;94126.09;;;6.63;100.00
49999;BME280;68071;45.062;7.356;2024-03-02T16:26:31;94124.59;;;6.55;100.00
49999;BME280;68071;45.062;7.356;2024-03-02T16:29:35;94126.41;;;6.69;100.00
49999;BME280;68071;45.062;7.356;2024-03-02T16:32:39;94118.31;;;6.55;100.00
49999;BME280;68071;45.062;7.356;2024-03-02T16:35:43;94117.88;;;6.60;100.00
49999;BME280;68071;45.062;7.356;2024-03-02T16:38:51;94116.56;;;6.75;100.00
49999;BME280;68071;45.062;7.356;2024-03-02T16:41:56;94120.06;;;7.10;100.00
49999;BME280;68071;45.062;7.356;2024-03-02T16:45:00;94116.38;;;7.24;100.00
49999;BME280;68071;45.062;7.356;2024-03-02T16:48:04;94108.09;;;6.93;100.00
49999;BME280;68071;45.062;7.356;2024-03-02T16:51:09;94106.97;;;6.53;100.00
49999;BME280;68071;45.062;7.356;2024-03-02T16:54:13;94111.97;;;7.00;100.00
49999;BME280;68071;45.062;7.356;2024-03-02T16:57:17;94112.44;;;7.25;100.00
49999;BME280;68071;45.062;7.356;2024-03-02T17:00:21;94107.59;;;7.06;100.00
49999;BME280;68071;45.062;7.356;2024-03-02T17:03:25;94108.22;;;7.17;100.00
49999;BME280;68071;45.062;7.356;2024-03-02T17:06:29;94105.66;;;7.03;100.00
49999;BME280;68071;45.062;7.356;2024-03-02T17:09:37;94106.84;;;7.02;100.00
49999;BME280;68071;45.062;7.356;2024-03-02T17:12:41;94113.47;;;7.04;100.00
49999;BME280;68071;45.062;7.356;2024-03-02T17:15:46;94125.41;;;6.90;100.00
49999;BME280;68071;45.062;7.356;2024-03-02T17:18:51;94124.50;;;7.01;100.00